Omskiy-141 — UGZK — position and weather

sailwx.info

Track history (hours):
 
Tides and Currents Weather Stations Pressure Air Temp Water Temp Dewpoint Dewpoint Depression Visibility Wind Speed Wind Dir Waves Ship Positions

Omskiy-141

Last reported at 2015-Aug-03 22:14 UTC. Time now 2015-Aug-03 23:22 UTC.
Position N 59°36' E 022°13'.

Length 108 m; draft 2.6 m.

Type: Cargo ship. MMSI: 273310600.

Date/timePositionNaut miles runAvg speedWind from/ knotsBaromVisibWave heightAir tempDewpointWater temp
2015-Aug-03 22:14N 59°36' E 022°13'6 9.0
2015-Aug-03 21:33N 59°36' E 022°01'9 9.0
2015-Aug-03 20:33N 59°36' E 021°43'9 9.0
2015-Aug-03 19:33N 59°36' E 021°25'  
2015-Jul-31 01:15N 59°36' E 021°15'5 7.8
2015-Jul-31 00:33N 59°36' E 021°25'8 7.7
2015-Jul-30 23:33N 59°36' E 021°41'8 7.5
2015-Jul-30 22:33N 59°36' E 021°56'39 7.6
2015-Jul-30 17:26N 59°39' E 023°13'7 7.7
2015-Jul-30 16:31N 59°41' E 023°26'10 7.7
2015-Jul-30 15:14N 59°43' E 023°45'84 7.9
2015-Jul-30 04:33N 60°01' E 026°28'8 7.7
2015-Jul-30 03:33N 60°01' E 026°44'91 7.5
2015-Jul-29 15:21N 59°59' E 029°46'6 7.8
2015-Jul-29 14:33N 59°56' E 029°57'8 7.5
2015-Jul-29 13:33N 59°55' E 030°12'1 1.3
2015-Jul-29 12:33N 59°55' E 030°14'0 0.0
2015-Jul-29 11:30N 59°55' E 030°14'0 0.0
2015-Jul-29 10:33N 59°55' E 030°14'0 0.0
2015-Jul-29 09:33N 59°55' E 030°14'0 0.0
2015-Jul-29 08:33N 59°55' E 030°14'0 0.0
2015-Jul-29 07:33N 59°55' E 030°14'0 0.0
2015-Jul-29 06:30N 59°55' E 030°14'0 0.0
2015-Jul-29 05:33N 59°55' E 030°14'0 0.0
2015-Jul-29 04:33N 59°55' E 030°14'0 0.0
2015-Jul-29 03:33N 59°55' E 030°14'0 0.0
2015-Jul-29 02:33N 59°55' E 030°14'0 0.2
2015-Jul-29 01:33N 59°55' E 030°15'5 4.8
2015-Jul-29 00:33N 59°56' E 030°24'7 7.3
2015-Jul-28 23:33N 59°50' E 030°32'0 0.0
2015-Jul-28 22:33N 59°50' E 030°32'0 0.0
2015-Jul-28 21:31N 59°50' E 030°32'0 0.0
2015-Jul-28 20:25N 59°50' E 030°32'0 0.0
2015-Jul-28 19:25N 59°50' E 030°32'0 0.0
2015-Jul-28 18:07N 59°50' E 030°32'0 0.0
2015-Jul-28 17:31N 59°50' E 030°32'0 0.0
2015-Jul-28 14:13N 59°50' E 030°32'0 0.0
2015-Jul-28 12:31N 59°50' E 030°32'0 0.0
2015-Jul-28 10:07N 59°50' E 030°32'0 0.0
2015-Jul-28 08:22N 59°50' E 030°32'0 0.0
2015-Jul-28 07:25N 59°50' E 030°32'1 0.7
2015-Jul-28 06:33N 59°50' E 030°33'2 0.4
2015-Jul-28 01:33N 59°49' E 030°36'  
Track history (hours):
 
Tides and Currents Weather Stations Pressure Air Temp Water Temp Dewpoint Dewpoint Depression Visibility Wind Speed Wind Dir Waves Ship Positions

Omskiy-141

Last reported at 2015-Aug-03 22:14 UTC. Time now 2015-Aug-03 23:22 UTC.
Position N 59°36' E 022°13'.

Length 108 m; draft 2.6 m.

Type: Cargo ship. MMSI: 273310600.

Date/timePositionNaut miles runAvg speedWind from/ knotsBaromVisibWave heightAir tempDewpointWater temp
2015-Aug-03 22:14N 59°36' E 022°13'6 9.0
2015-Aug-03 21:33N 59°36' E 022°01'9 9.0
2015-Aug-03 20:33N 59°36' E 021°43'9 9.0
2015-Aug-03 19:33N 59°36' E 021°25'  
2015-Jul-31 01:15N 59°36' E 021°15'5 7.8
2015-Jul-31 00:33N 59°36' E 021°25'8 7.7
2015-Jul-30 23:33N 59°36' E 021°41'8 7.5
2015-Jul-30 22:33N 59°36' E 021°56'39 7.6
2015-Jul-30 17:26N 59°39' E 023°13'7 7.7
2015-Jul-30 16:31N 59°41' E 023°26'10 7.7
2015-Jul-30 15:14N 59°43' E 023°45'84 7.9
2015-Jul-30 04:33N 60°01' E 026°28'8 7.7
2015-Jul-30 03:33N 60°01' E 026°44'91 7.5
2015-Jul-29 15:21N 59°59' E 029°46'6 7.8
2015-Jul-29 14:33N 59°56' E 029°57'8 7.5
2015-Jul-29 13:33N 59°55' E 030°12'1 1.3
2015-Jul-29 12:33N 59°55' E 030°14'0 0.0
2015-Jul-29 11:30N 59°55' E 030°14'0 0.0
2015-Jul-29 10:33N 59°55' E 030°14'0 0.0
2015-Jul-29 09:33N 59°55' E 030°14'0 0.0
2015-Jul-29 08:33N 59°55' E 030°14'0 0.0
2015-Jul-29 07:33N 59°55' E 030°14'0 0.0
2015-Jul-29 06:30N 59°55' E 030°14'0 0.0
2015-Jul-29 05:33N 59°55' E 030°14'0 0.0
2015-Jul-29 04:33N 59°55' E 030°14'0 0.0
2015-Jul-29 03:33N 59°55' E 030°14'0 0.0
2015-Jul-29 02:33N 59°55' E 030°14'0 0.2
2015-Jul-29 01:33N 59°55' E 030°15'5 4.8
2015-Jul-29 00:33N 59°56' E 030°24'7 7.3
2015-Jul-28 23:33N 59°50' E 030°32'0 0.0
2015-Jul-28 22:33N 59°50' E 030°32'0 0.0
2015-Jul-28 21:31N 59°50' E 030°32'0 0.0
2015-Jul-28 20:25N 59°50' E 030°32'0 0.0
2015-Jul-28 19:25N 59°50' E 030°32'0 0.0
2015-Jul-28 18:07N 59°50' E 030°32'0 0.0
2015-Jul-28 17:31N 59°50' E 030°32'0 0.0
2015-Jul-28 14:13N 59°50' E 030°32'0 0.0
2015-Jul-28 12:31N 59°50' E 030°32'0 0.0
2015-Jul-28 10:07N 59°50' E 030°32'0 0.0
2015-Jul-28 08:22N 59°50' E 030°32'0 0.0
2015-Jul-28 07:25N 59°50' E 030°32'1 0.7
2015-Jul-28 06:33N 59°50' E 030°33'2 0.4
2015-Jul-28 01:33N 59°49' E 030°36'  

Dump ship's entire track history